Thermopolis, Wyoming
Current Conditions -  °F | °C
As of 8:35 PM on Monday 22 Dec 2014 (Local Time) from KTBX Reporting Station
Overcast Overcast  
Wind Chill: -1°   Ceiling: 600
Heat Index: 21°   Visibility: NA
Dew Point: 19°   Wind: 52mph
Humidity: 93%   Direction: 300°WNW
Pressure: 29.94"   Gusts: 56mph
Location:  43.65°N, 108.21°W
Report Text: KTBX 230335Z AUTO 30045G49KT OVC006 M06/M07 A2994 RMK AO2 PWINO
Loading
Personal Weather Stations






























Interactive Weather Map New forecast layout! Learn more

10-Day Weather Forecast

Advertisements
Track Severe Weather on mobile